Summerside, Canada
Current Conditions -  °F | °C
As of 6:00 AM on Thursday 27 Nov 2014 (Local Time) from CYYG Reporting Station
Light Snow Light Snow  
Wind Chill: 18°   Ceiling: 600
Heat Index: 32°   Visibility: 6mi
Dew Point: 30°   Wind: 29mph
Humidity: 93%   Direction: 50°NE
Pressure: 29.55"   Gusts: 38mph
Location:  46.39°N, 63.79°W
Report Text: CYYG 271000Z 05025G33KT 6SM -SNPL DRSN OVC006 00/M01 A2955 RMK SF8 PRESFR SLP007
Loading
Personal Weather Stations






























Interactive Weather Map New forecast layout! Learn more

10-Day Weather Forecast

Advertisements
Track Severe Weather on mobile